sensor_id;sensor_type;location;lat;lon;timestamp;pressure;altitude;pressure_sealevel;temperature;humidity
10618;BME280;5356;43.526;26.534;2024-02-15T00:00:17;99583.88;;;7.19;100.00
10618;BME280;5356;43.526;26.534;2024-02-15T00:02:43;99589.28;;;7.32;100.00
10618;BME280;5356;43.526;26.534;2024-02-15T00:05:10;99587.91;;;7.36;100.00
10618;BME280;5356;43.526;26.534;2024-02-15T00:07:36;99591.56;;;7.35;100.00
10618;BME280;5356;43.526;26.534;2024-02-15T00:10:02;99586.31;;;7.20;100.00
10618;BME280;5356;43.526;26.534;2024-02-15T00:12:29;99584.69;;;7.19;100.00
10618;BME280;5356;43.526;26.534;2024-02-15T00:14:55;99585.22;;;7.15;100.00
10618;BME280;5356;43.526;26.534;2024-02-15T00:17:24;99593.63;;;7.18;100.00
10618;BME280;5356;43.526;26.534;2024-02-15T00:19:50;99586.75;;;7.24;100.00
10618;BME280;5356;43.526;26.534;2024-02-15T00:22:15;99590.41;;;7.23;100.00
10618;BME280;5356;43.526;26.534;2024-02-15T00:24:41;99595.72;;;7.23;100.00
10618;BME280;5356;43.526;26.534;2024-02-15T00:27:08;99602.09;;;7.29;100.00
10618;BME280;5356;43.526;26.534;2024-02-15T00:29:34;99596.28;;;7.40;100.00
10618;BME280;5356;43.526;26.534;2024-02-15T00:32:00;99601.66;;;7.47;100.00
10618;BME280;5356;43.526;26.534;2024-02-15T00:34:26;99596.56;;;7.45;100.00
10618;BME280;5356;43.526;26.534;2024-02-15T00:36:52;99602.72;;;7.31;100.00
10618;BME280;5356;43.526;26.534;2024-02-15T00:39:17;99598.44;;;7.30;100.00
10618;BME280;5356;43.526;26.534;2024-02-15T00:41:46;99604.31;;;7.25;100.00
10618;BME280;5356;43.526;26.534;2024-02-15T00:44:12;99593.94;;;7.30;100.00
10618;BME280;5356;43.526;26.534;2024-02-15T00:46:38;99599.88;;;7.32;100.00
10618;BME280;5356;43.526;26.534;2024-02-15T00:49:04;99598.25;;;7.31;100.00
10618;BME280;5356;43.526;26.534;2024-02-15T00:51:35;99597.22;;;7.32;100.00
10618;BME280;5356;43.526;26.534;2024-02-15T00:54:02;99594.91;;;7.23;100.00
10618;BME280;5356;43.526;26.534;2024-02-15T00:56:28;99587.13;;;7.21;100.00
10618;BME280;5356;43.526;26.534;2024-02-15T00:58:55;99585.22;;;7.15;100.00
10618;BME280;5356;43.526;26.534;2024-02-15T01:01:21;99580.38;;;7.18;100.00
10618;BME280;5356;43.526;26.534;2024-02-15T01:03:46;99585.13;;;7.23;100.00
10618;BME280;5356;43.526;26.534;2024-02-15T01:06:12;99586.00;;;7.30;100.00
10618;BME280;5356;43.526;26.534;2024-02-15T01:08:38;99585.88;;;7.17;100.00
10618;BME280;5356;43.526;26.534;2024-02-15T01:11:04;99579.75;;;7.16;100.00
10618;BME280;5356;43.526;26.534;2024-02-15T01:13:29;99583.88;;;7.19;100.00
10618;BME280;5356;43.526;26.534;2024-02-15T01:15:55;99577.72;;;7.18;100.00
10618;BME280;5356;43.526;26.534;2024-02-15T01:18:21;99582.28;;;7.25;100.00
10618;BME280;5356;43.526;26.534;2024-02-15T01:20:47;99580.69;;;7.30;100.00
10618;BME280;5356;43.526;26.534;2024-02-15T01:23:12;99580.09;;;7.28;100.00
10618;BME280;5356;43.526;26.534;2024-02-15T01:25:37;99579.28;;;7.13;100.00
10618;BME280;5356;43.526;26.534;2024-02-15T01:28:05;99583.72;;;7.06;100.00
10618;BME280;5356;43.526;26.534;2024-02-15T01:30:31;99582.19;;;6.96;100.00
10618;BME280;5356;43.526;26.534;2024-02-15T01:32:57;99585.66;;;6.97;100.00
10618;BME280;5356;43.526;26.534;2024-02-15T01:35:23;99582.44;;;7.02;100.00
10618;BME280;5356;43.526;26.534;2024-02-15T01:37:49;99582.91;;;6.90;100.00
10618;BME280;5356;43.526;26.534;2024-02-15T01:40:15;99579.66;;;6.88;100.00
10618;BME280;5356;43.526;26.534;2024-02-15T01:42:41;99575.09;;;6.82;100.00
10618;BME280;5356;43.526;26.534;2024-02-15T01:45:07;99575.91;;;6.83;100.00
10618;BME280;5356;43.526;26.534;2024-02-15T01:47:33;99580.56;;;6.81;100.00
10618;BME280;5356;43.526;26.534;2024-02-15T01:49:59;99582.56;;;6.79;100.00
10618;BME280;5356;43.526;26.534;2024-02-15T01:52:24;99582.28;;;6.73;100.00
10618;BME280;5356;43.526;26.534;2024-02-15T01:54:52;99582.66;;;6.85;100.00
10618;BME280;5356;43.526;26.534;2024-02-15T01:57:19;99580.19;;;6.84;100.00
10618;BME280;5356;43.526;26.534;2024-02-15T01:59:50;99581.09;;;6.76;100.00
10618;BME280;5356;43.526;26.534;2024-02-15T02:02:18;99586.34;;;6.69;100.00
10618;BME280;5356;43.526;26.534;2024-02-15T02:04:45;99591.28;;;6.58;100.00
10618;BME280;5356;43.526;26.534;2024-02-15T02:07:11;99587.25;;;6.62;100.00
10618;BME280;5356;43.526;26.534;2024-02-15T02:09:36;99589.00;;;6.55;100.00
10618;BME280;5356;43.526;26.534;2024-02-15T02:12:02;99588.16;;;6.69;100.00
10618;BME280;5356;43.526;26.534;2024-02-15T02:14:29;99592.34;;;6.78;100.00
10618;BME280;5356;43.526;26.534;2024-02-15T02:16:54;99588.56;;;6.87;100.00
10618;BME280;5356;43.526;26.534;2024-02-15T02:19:20;99580.84;;;6.86;100.00
10618;BME280;5356;43.526;26.534;2024-02-15T02:21:46;99590.06;;;6.75;100.00
10618;BME280;5356;43.526;26.534;2024-02-15T02:24:21;99593.53;;;6.75;100.00
10618;BME280;5356;43.526;26.534;2024-02-15T02:26:47;99594.44;;;6.83;100.00
10618;BME280;5356;43.526;26.534;2024-02-15T02:29:15;99594.97;;;6.93;100.00
10618;BME280;5356;43.526;26.534;2024-02-15T02:31:40;99592.13;;;6.94;100.00
10618;BME280;5356;43.526;26.534;2024-02-15T02:34:08;99594.31;;;7.06;100.00
10618;BME280;5356;43.526;26.534;2024-02-15T02:36:34;99596.31;;;7.04;100.00
10618;BME280;5356;43.526;26.534;2024-02-15T02:38:59;99598.69;;;6.98;100.00
10618;BME280;5356;43.526;26.534;2024-02-15T02:41:27;99604.03;;;6.84;100.00
10618;BME280;5356;43.526;26.534;2024-02-15T02:43:57;99606.50;;;6.85;100.00
10618;BME280;5356;43.526;26.534;2024-02-15T02:46:22;99597.25;;;6.81;100.00
10618;BME280;5356;43.526;26.534;2024-02-15T02:48:48;99593.53;;;6.75;100.00
10618;BME280;5356;43.526;26.534;2024-02-15T02:51:14;99597.91;;;6.83;100.00
10618;BME280;5356;43.526;26.534;2024-02-15T02:53:40;99592.94;;;6.95;100.00
10618;BME280;5356;43.526;26.534;2024-02-15T02:56:06;99598.44;;;6.93;100.00
10618;BME280;5356;43.526;26.534;2024-02-15T02:58:33;99600.19;;;6.86;100.00
10618;BME280;5356;43.526;26.534;2024-02-15T03:00:59;99603.84;;;6.85;100.00
10618;BME280;5356;43.526;26.534;2024-02-15T03:03:26;99597.25;;;6.81;100.00
10618;BME280;5356;43.526;26.534;2024-02-15T03:05:51;99600.00;;;6.73;100.00
10618;BME280;5356;43.526;26.534;2024-02-15T03:08:17;99599.84;;;6.74;100.00
10618;BME280;5356;43.526;26.534;2024-02-15T03:10:43;99600.56;;;6.83;100.00
10618;BME280;5356;43.526;26.534;2024-02-15T03:13:08;99592.88;;;6.88;100.00
10618;BME280;5356;43.526;26.534;2024-02-15T03:15:34;99597.44;;;6.94;100.00
10618;BME280;5356;43.526;26.534;2024-02-15T03:18:00;99592.50;;;6.91;100.00
10618;BME280;5356;43.526;26.534;2024-02-15T03:20:25;99590.78;;;6.84;100.00
10618;BME280;5356;43.526;26.534;2024-02-15T03:22:55;99605.59;;;6.78;100.00
10618;BME280;5356;43.526;26.534;2024-02-15T03:25:21;99612.06;;;6.75;100.00
10618;BME280;5356;43.526;26.534;2024-02-15T03:27:54;99600.00;;;6.73;100.00
10618;BME280;5356;43.526;26.534;2024-02-15T03:30:22;99612.25;;;6.59;100.00
10618;BME280;5356;43.526;26.534;2024-02-15T03:32:49;99603.88;;;6.56;100.00
10618;BME280;5356;43.526;26.534;2024-02-15T03:35:17;99613.63;;;6.55;100.00
10618;BME280;5356;43.526;26.534;2024-02-15T03:37:43;99609.69;;;6.51;100.00
10618;BME280;5356;43.526;26.534;2024-02-15T03:40:09;99612.53;;;6.49;100.00
10618;BME280;5356;43.526;26.534;2024-02-15T03:42:35;99608.50;;;6.53;100.00
10618;BME280;5356;43.526;26.534;2024-02-15T03:45:04;99605.03;;;6.53;100.00
10618;BME280;5356;43.526;26.534;2024-02-15T03:47:34;99606.16;;;6.44;100.00
10618;BME280;5356;43.526;26.534;2024-02-15T03:50:01;99615.34;;;6.33;100.00
10618;BME280;5356;43.526;26.534;2024-02-15T03:52:27;99611.44;;;6.29;100.00
10618;BME280;5356;43.526;26.534;2024-02-15T03:54:55;99607.88;;;6.22;100.00
10618;BME280;5356;43.526;26.534;2024-02-15T03:57:22;99613.97;;;6.22;100.00
10618;BME280;5356;43.526;26.534;2024-02-15T03:59:48;99608.44;;;6.32;100.00
10618;BME280;5356;43.526;26.534;2024-02-15T04:02:18;99621.38;;;6.27;100.00
10618;BME280;5356;43.526;26.534;2024-02-15T04:04:43;99612.25;;;6.29;100.00
10618;BME280;5356;43.526;26.534;2024-02-15T04:07:15;99601.03;;;6.27;100.00
10618;BME280;5356;43.526;26.534;2024-02-15T04:09:42;99605.78;;;6.17;100.00
10618;BME280;5356;43.526;26.534;2024-02-15T04:12:07;99616.09;;;6.27;100.00
10618;BME280;5356;43.526;26.534;2024-02-15T04:14:33;99618.44;;;6.22;100.00
10618;BME280;5356;43.526;26.534;2024-02-15T04:17:00;99614.53;;;6.18;100.00
10618;BME280;5356;43.526;26.534;2024-02-15T04:19:27;99616.88;;;6.13;100.00
10618;BME280;5356;43.526;26.534;2024-02-15T04:21:53;99623.53;;;6.08;100.00
10618;BME280;5356;43.526;26.534;2024-02-15T04:24:20;99619.53;;;6.13;100.00
10618;BME280;5356;43.526;26.534;2024-02-15T04:26:47;99617.16;;;6.03;100.00
10618;BME280;5356;43.526;26.534;2024-02-15T04:29:14;99615.06;;;5.90;100.00
10618;BME280;5356;43.526;26.534;2024-02-15T04:31:40;99619.69;;;5.96;100.00
10618;BME280;5356;43.526;26.534;2024-02-15T04:34:06;99615.78;;;5.84;100.00
10618;BME280;5356;43.526;26.534;2024-02-15T04:36:32;99617.88;;;5.89;100.00
10618;BME280;5356;43.526;26.534;2024-02-15T04:39:00;99628.56;;;5.80;100.00
10618;BME280;5356;43.526;26.534;2024-02-15T04:41:29;99634.41;;;5.68;100.00
10618;BME280;5356;43.526;26.534;2024-02-15T04:43:55;99638.28;;;5.57;100.00
10618;BME280;5356;43.526;26.534;2024-02-15T04:46:20;99640.81;;;5.50;100.00
10618;BME280;5356;43.526;26.534;2024-02-15T04:48:47;99637.88;;;5.45;100.00
10618;BME280;5356;43.526;26.534;2024-02-15T04:51:14;99642.41;;;5.59;100.00
10618;BME280;5356;43.526;26.534;2024-02-15T04:53:40;99644.13;;;5.52;100.00
10618;BME280;5356;43.526;26.534;2024-02-15T04:56:06;99654.19;;;5.49;100.00
10618;BME280;5356;43.526;26.534;2024-02-15T04:58:39;99657.97;;;5.54;100.00
10618;BME280;5356;43.526;26.534;2024-02-15T05:01:12;99656.78;;;5.57;100.00
10618;BME280;5356;43.526;26.534;2024-02-15T05:03:38;99662.22;;;5.63;100.00
10618;BME280;5356;43.526;26.534;2024-02-15T05:06:03;99662.06;;;5.57;100.00
10618;BME280;5356;43.526;26.534;2024-02-15T05:08:30;99669.50;;;5.61;100.00
10618;BME280;5356;43.526;26.534;2024-02-15T05:10:57;99665.63;;;5.49;100.00
10618;BME280;5356;43.526;26.534;2024-02-15T05:13:26;99666.75;;;5.55;100.00
10618;BME280;5356;43.526;26.534;2024-02-15T05:15:51;99667.25;;;5.50;100.00
10618;BME280;5356;43.526;26.534;2024-02-15T05:18:17;99663.59;;;5.51;100.00
10618;BME280;5356;43.526;26.534;2024-02-15T05:20:43;99667.44;;;5.40;100.00
10618;BME280;5356;43.526;26.534;2024-02-15T05:23:09;99671.91;;;5.40;100.00
10618;BME280;5356;43.526;26.534;2024-02-15T05:25:34;99667.66;;;5.39;100.00
10618;BME280;5356;43.526;26.534;2024-02-15T05:28:01;99668.78;;;5.45;100.00
10618;BME280;5356;43.526;26.534;2024-02-15T05:30:26;99674.41;;;5.42;100.00
10618;BME280;5356;43.526;26.534;2024-02-15T05:32:52;99674.06;;;5.45;100.00
10618;BME280;5356;43.526;26.534;2024-02-15T05:35:18;99673.63;;;5.33;100.00
10618;BME280;5356;43.526;26.534;2024-02-15T05:37:44;99686.50;;;5.36;100.00
10618;BME280;5356;43.526;26.534;2024-02-15T05:40:11;99687.78;;;5.40;100.00
10618;BME280;5356;43.526;26.534;2024-02-15T05:42:42;99690.09;;;5.35;100.00
10618;BME280;5356;43.526;26.534;2024-02-15T05:47:52;99698.66;;;5.45;100.00
10618;BME280;5356;43.526;26.534;2024-02-15T05:50:17;99701.81;;;5.40;100.00
10618;BME280;5356;43.526;26.534;2024-02-15T05:52:46;99718.88;;;5.30;100.00
10618;BME280;5356;43.526;26.534;2024-02-15T05:55:12;99709.81;;;5.24;100.00
10618;BME280;5356;43.526;26.534;2024-02-15T05:57:43;99722.59;;;5.12;100.00
10618;BME280;5356;43.526;26.534;2024-02-15T06:00:09;99722.59;;;5.12;100.00
10618;BME280;5356;43.526;26.534;2024-02-15T06:02:35;99728.69;;;5.13;100.00
10618;BME280;5356;43.526;26.534;2024-02-15T06:05:00;99725.34;;;5.27;100.00
10618;BME280;5356;43.526;26.534;2024-02-15T06:07:29;99731.44;;;5.28;100.00
10618;BME280;5356;43.526;26.534;2024-02-15T06:09:57;99723.13;;;5.39;100.00
10618;BME280;5356;43.526;26.534;2024-02-15T06:12:23;99722.09;;;5.48;100.00
10618;BME280;5356;43.526;26.534;2024-02-15T06:14:48;99720.13;;;5.42;100.00
10618;BME280;5356;43.526;26.534;2024-02-15T06:17:14;99724.56;;;5.50;100.00
10618;BME280;5356;43.526;26.534;2024-02-15T06:19:39;99716.44;;;5.51;100.00
10618;BME280;5356;43.526;26.534;2024-02-15T06:22:05;99728.69;;;5.52;100.00
10618;BME280;5356;43.526;26.534;2024-02-15T06:24:31;99726.66;;;5.54;100.00
10618;BME280;5356;43.526;26.534;2024-02-15T06:26:57;99731.28;;;5.60;100.00
10618;BME280;5356;43.526;26.534;2024-02-15T06:29:25;99730.94;;;5.63;100.00
10618;BME280;5356;43.526;26.534;2024-02-15T06:32:09;99727.03;;;5.74;100.00
10618;BME280;5356;43.526;26.534;2024-02-15T06:34:53;99736.41;;;5.85;100.00
10618;BME280;5356;43.526;26.534;2024-02-15T06:37:40;99742.00;;;5.90;100.00
10618;BME280;5356;43.526;26.534;2024-02-15T06:40:24;99734.72;;;5.92;100.00
10618;BME280;5356;43.526;26.534;2024-02-15T06:42:50;99753.47;;;6.05;100.00
10618;BME280;5356;43.526;26.534;2024-02-15T06:45:16;99739.13;;;6.00;100.00
10618;BME280;5356;43.526;26.534;2024-02-15T06:47:43;99747.50;;;6.12;100.00
10618;BME280;5356;43.526;26.534;2024-02-15T06:50:18;99740.75;;;6.09;100.00
10618;BME280;5356;43.526;26.534;2024-02-15T06:52:43;99744.00;;;6.11;100.00
10618;BME280;5356;43.526;26.534;2024-02-15T06:55:10;99745.13;;;6.17;100.00
10618;BME280;5356;43.526;26.534;2024-02-15T06:57:38;99746.25;;;6.22;100.00
10618;BME280;5356;43.526;26.534;2024-02-15T07:00:07;99741.91;;;6.29;100.00
10618;BME280;5356;43.526;26.534;2024-02-15T07:02:34;99735.59;;;6.30;100.00
10618;BME280;5356;43.526;26.534;2024-02-15T07:05:00;99738.78;;;6.26;100.00
10618;BME280;5356;43.526;26.534;2024-02-15T07:07:26;99746.38;;;6.29;100.00
10618;BME280;5356;43.526;26.534;2024-02-15T07:09:51;99738.28;;;6.45;100.00
10618;BME280;5356;43.526;26.534;2024-02-15T07:12:17;99742.75;;;6.45;100.00
10618;BME280;5356;43.526;26.534;2024-02-15T07:14:45;99729.50;;;6.45;100.00
10618;BME280;5356;43.526;26.534;2024-02-15T07:17:11;99742.94;;;6.43;100.00
10618;BME280;5356;43.526;26.534;2024-02-15T07:19:36;99741.34;;;6.57;100.00
10618;BME280;5356;43.526;26.534;2024-02-15T07:22:03;99738.06;;;6.70;100.00
10618;BME280;5356;43.526;26.534;2024-02-15T07:24:29;99738.34;;;6.75;100.00
10618;BME280;5356;43.526;26.534;2024-02-15T07:26:54;99748.63;;;6.70;100.00
10618;BME280;5356;43.526;26.534;2024-02-15T07:29:23;99743.47;;;6.77;100.00
10618;BME280;5356;43.526;26.534;2024-02-15T07:31:49;99739.00;;;6.77;100.00
10618;BME280;5356;43.526;26.534;2024-02-15T07:34:15;99740.72;;;6.85;100.00
10618;BME280;5356;43.526;26.534;2024-02-15T07:36:42;99742.09;;;6.95;100.00
10618;BME280;5356;43.526;26.534;2024-02-15T07:39:08;99737.34;;;7.06;100.00
10618;BME280;5356;43.526;26.534;2024-02-15T07:41:38;99746.09;;;7.21;100.00
10618;BME280;5356;43.526;26.534;2024-02-15T07:44:04;99745.63;;;7.32;100.00
10618;BME280;5356;43.526;26.534;2024-02-15T07:46:29;99741.06;;;7.26;100.00
10618;BME280;5356;43.526;26.534;2024-02-15T07:48:55;99745.00;;;7.45;100.00
10618;BME280;5356;43.526;26.534;2024-02-15T07:51:22;99748.84;;;7.42;100.00
10618;BME280;5356;43.526;26.534;2024-02-15T07:53:48;99754.03;;;7.51;100.00
10618;BME280;5356;43.526;26.534;2024-02-15T07:56:15;99752.00;;;7.53;100.00
10618;BME280;5356;43.526;26.534;2024-02-15T07:58:47;99753.09;;;7.58;100.00
10618;BME280;5356;43.526;26.534;2024-02-15T08:01:16;99755.94;;;7.57;100.00
10618;BME280;5356;43.526;26.534;2024-02-15T08:03:41;99757.88;;;7.48;100.00
10618;BME280;5356;43.526;26.534;2024-02-15T08:06:12;99754.50;;;7.39;100.00
10618;BME280;5356;43.526;26.534;2024-02-15T08:08:43;99749.28;;;7.46;100.00
10618;BME280;5356;43.526;26.534;2024-02-15T08:11:11;99736.22;;;7.45;100.00
10618;BME280;5356;43.526;26.534;2024-02-15T08:13:46;99748.09;;;7.49;100.00
10618;BME280;5356;43.526;26.534;2024-02-15T08:16:15;99746.47;;;7.48;100.00
10618;BME280;5356;43.526;26.534;2024-02-15T08:18:45;99751.06;;;7.60;100.00
10618;BME280;5356;43.526;26.534;2024-02-15T08:21:11;99743.94;;;7.61;100.00
10618;BME280;5356;43.526;26.534;2024-02-15T08:23:37;99746.97;;;7.58;100.00
10618;BME280;5356;43.526;26.534;2024-02-15T08:26:02;99751.38;;;7.51;100.00
10618;BME280;5356;43.526;26.534;2024-02-15T08:28:28;99750.81;;;7.55;100.00
10618;BME280;5356;43.526;26.534;2024-02-15T08:30:55;99745.41;;;7.63;100.00
10618;BME280;5356;43.526;26.534;2024-02-15T08:33:24;99746.41;;;7.62;100.00
10618;BME280;5356;43.526;26.534;2024-02-15T08:35:50;99749.06;;;7.62;100.00
10618;BME280;5356;43.526;26.534;2024-02-15T08:38:16;99751.91;;;7.61;100.00
10618;BME280;5356;43.526;26.534;2024-02-15T08:40:42;99760.81;;;7.75;100.00
10618;BME280;5356;43.526;26.534;2024-02-15T08:43:09;99757.25;;;7.82;100.00
10618;BME280;5356;43.526;26.534;2024-02-15T08:45:35;99755.34;;;7.76;100.00
10618;BME280;5356;43.526;26.534;2024-02-15T08:48:00;99752.06;;;7.74;100.00
10618;BME280;5356;43.526;26.534;2024-02-15T08:50:29;99752.06;;;7.74;100.00
10618;BME280;5356;43.526;26.534;2024-02-15T08:52:55;99748.66;;;7.80;100.00
10618;BME280;5356;43.526;26.534;2024-02-15T08:55:21;99753.94;;;7.80;100.00
10618;BME280;5356;43.526;26.534;2024-02-15T08:57:52;99741.34;;;7.82;100.00
10618;BME280;5356;43.526;26.534;2024-02-15T09:00:17;99738.31;;;7.85;100.00
10618;BME280;5356;43.526;26.534;2024-02-15T09:02:43;99738.34;;;7.92;100.00
10618;BME280;5356;43.526;26.534;2024-02-15T09:05:09;99739.63;;;7.96;100.00
10618;BME280;5356;43.526;26.534;2024-02-15T09:07:35;99732.75;;;8.02;100.00
10618;BME280;5356;43.526;26.534;2024-02-15T09:10:03;99737.69;;;8.05;100.00
10618;BME280;5356;43.526;26.534;2024-02-15T09:12:28;99740.22;;;8.13;100.00
10618;BME280;5356;43.526;26.534;2024-02-15T09:14:55;99736.28;;;8.09;100.00
10618;BME280;5356;43.526;26.534;2024-02-15T09:17:21;99736.50;;;8.07;100.00
10618;BME280;5356;43.526;26.534;2024-02-15T09:19:48;99740.97;;;8.07;100.00
10618;BME280;5356;43.526;26.534;2024-02-15T09:22:16;99736.91;;;8.11;100.00
10618;BME280;5356;43.526;26.534;2024-02-15T09:24:41;99744.75;;;8.19;100.00
10618;BME280;5356;43.526;26.534;2024-02-15T09:27:07;99743.03;;;8.33;100.00
10618;BME280;5356;43.526;26.534;2024-02-15T09:29:33;99731.75;;;8.24;100.00
10618;BME280;5356;43.526;26.534;2024-02-15T09:31:59;99736.44;;;8.44;100.00
10618;BME280;5356;43.526;26.534;2024-02-15T09:34:27;99728.53;;;8.57;100.00
10618;BME280;5356;43.526;26.534;2024-02-15T09:36:52;99723.16;;;8.72;100.00
10618;BME280;5356;43.526;26.534;2024-02-15T09:39:18;99729.91;;;8.74;100.00
10618;BME280;5356;43.526;26.534;2024-02-15T09:41:43;99725.69;;;8.87;100.00
10618;BME280;5356;43.526;26.534;2024-02-15T09:44:09;99728.94;;;8.82;99.75
10618;BME280;5356;43.526;26.534;2024-02-15T09:46:36;99713.38;;;8.79;99.41
10618;BME280;5356;43.526;26.534;2024-02-15T09:49:01;99718.28;;;8.75;100.00
10618;BME280;5356;43.526;26.534;2024-02-15T09:51:29;99711.59;;;8.86;99.95
10618;BME280;5356;43.526;26.534;2024-02-15T09:53:56;99706.69;;;8.83;98.93
10618;BME280;5356;43.526;26.534;2024-02-15T09:56:23;99707.00;;;8.73;99.18
10618;BME280;5356;43.526;26.534;2024-02-15T09:58:50;99703.34;;;8.74;99.46
10618;BME280;5356;43.526;26.534;2024-02-15T10:01:19;99701.16;;;8.85;97.92
10618;BME280;5356;43.526;26.534;2024-02-15T10:03:49;99697.53;;;8.92;98.17
10618;BME280;5356;43.526;26.534;2024-02-15T10:06:15;99689.75;;;8.91;97.65
10618;BME280;5356;43.526;26.534;2024-02-15T10:08:43;99691.81;;;8.95;97.62
10618;BME280;5356;43.526;26.534;2024-02-15T10:11:09;99686.94;;;8.99;98.06
10618;BME280;5356;43.526;26.534;2024-02-15T10:13:36;99681.44;;;9.07;98.43
10618;BME280;5356;43.526;26.534;2024-02-15T10:16:15;99680.03;;;9.11;97.26
10618;BME280;5356;43.526;26.534;2024-02-15T10:18:41;99682.91;;;9.10;97.51
10618;BME280;5356;43.526;26.534;2024-02-15T10:21:06;99671.69;;;9.14;97.17
10618;BME280;5356;43.526;26.534;2024-02-15T10:23:31;99664.94;;;9.18;97.18
10618;BME280;5356;43.526;26.534;2024-02-15T10:25:57;99672.75;;;9.33;97.08
10618;BME280;5356;43.526;26.534;2024-02-15T10:28:23;99666.03;;;9.44;97.00
10618;BME280;5356;43.526;26.534;2024-02-15T10:30:49;99667.09;;;9.56;96.99
10618;BME280;5356;43.526;26.534;2024-02-15T10:33:28;99666.66;;;9.46;95.89
10618;BME280;5356;43.526;26.534;2024-02-15T10:36:06;99654.81;;;9.55;96.19
10618;BME280;5356;43.526;26.534;2024-02-15T10:38:33;99658.56;;;9.74;96.68
10618;BME280;5356;43.526;26.534;2024-02-15T10:41:06;99654.25;;;9.80;96.13
10618;BME280;5356;43.526;26.534;2024-02-15T10:43:35;99662.25;;;9.86;95.14
10618;BME280;5356;43.526;26.534;2024-02-15T10:46:04;99656.50;;;9.83;94.67
10618;BME280;5356;43.526;26.534;2024-02-15T10:48:31;99655.66;;;9.76;94.76
10618;BME280;5356;43.526;26.534;2024-02-15T10:50:59;99644.44;;;9.87;95.47
10618;BME280;5356;43.526;26.534;2024-02-15T10:53:30;99651.59;;;9.93;94.28
10618;BME280;5356;43.526;26.534;2024-02-15T10:58:32;99648.34;;;9.91;94.52
10618;BME280;5356;43.526;26.534;2024-02-15T11:01:06;99642.59;;;9.81;93.50
10618;BME280;5356;43.526;26.534;2024-02-15T11:03:35;99647.09;;;9.87;94.08
10618;BME280;5356;43.526;26.534;2024-02-15T11:06:02;99649.16;;;9.98;94.49
10618;BME280;5356;43.526;26.534;2024-02-15T11:08:32;99644.03;;;10.03;93.46
10618;BME280;5356;43.526;26.534;2024-02-15T11:10:58;99631.53;;;10.04;94.12
10618;BME280;5356;43.526;26.534;2024-02-15T11:13:24;99636.84;;;10.10;93.79
10618;BME280;5356;43.526;26.534;2024-02-15T11:15:50;99631.94;;;10.07;94.06
10618;BME280;5356;43.526;26.534;2024-02-15T11:18:42;99636.84;;;10.04;93.30
10618;BME280;5356;43.526;26.534;2024-02-15T11:21:10;99642.59;;;9.94;90.16
10618;BME280;5356;43.526;26.534;2024-02-15T11:23:35;99630.31;;;9.86;89.82
10618;BME280;5356;43.526;26.534;2024-02-15T11:26:00;99625.19;;;9.92;90.54
10618;BME280;5356;43.526;26.534;2024-02-15T11:28:36;99629.50;;;9.99;91.21
10618;BME280;5356;43.526;26.534;2024-02-15T11:31:02;99619.66;;;10.06;90.68
10618;BME280;5356;43.526;26.534;2024-02-15T11:33:35;99627.03;;;10.18;90.82
10618;BME280;5356;43.526;26.534;2024-02-15T11:36:12;99623.34;;;10.32;92.09
10618;BME280;5356;43.526;26.534;2024-02-15T11:38:39;99622.53;;;10.38;91.79
10618;BME280;5356;43.526;26.534;2024-02-15T11:41:11;99627.00;;;10.44;91.15
10618;BME280;5356;43.526;26.534;2024-02-15T11:46:16;99621.47;;;10.52;90.23
10618;BME280;5356;43.526;26.534;2024-02-15T11:48:47;99624.97;;;10.33;88.59
10618;BME280;5356;43.526;26.534;2024-02-15T11:51:26;99615.56;;;10.24;89.11
10618;BME280;5356;43.526;26.534;2024-02-15T11:54:02;99612.69;;;10.19;89.25
10618;BME280;5356;43.526;26.534;2024-02-15T11:56:32;99618.22;;;10.24;89.48
10618;BME280;5356;43.526;26.534;2024-02-15T11:59:03;99614.31;;;10.26;90.16
10618;BME280;5356;43.526;26.534;2024-02-15T12:01:31;99604.91;;;10.24;89.89
10618;BME280;5356;43.526;26.534;2024-02-15T12:04:16;99605.94;;;10.16;89.55
10618;BME280;5356;43.526;26.534;2024-02-15T12:07:00;99610.03;;;10.19;88.60
10618;BME280;5356;43.526;26.534;2024-02-15T12:09:44;99612.69;;;10.19;86.93
10618;BME280;5356;43.526;26.534;2024-02-15T12:12:27;99604.50;;;10.27;87.61
10618;BME280;5356;43.526;26.534;2024-02-15T12:15:11;99601.66;;;10.28;87.01
10618;BME280;5356;43.526;26.534;2024-02-15T12:18:13;99609.84;;;10.27;85.97
10618;BME280;5356;43.526;26.534;2024-02-15T12:20:57;99604.91;;;10.37;87.38
10618;BME280;5356;43.526;26.534;2024-02-15T12:23:23;99605.94;;;10.43;88.03
10618;BME280;5356;43.526;26.534;2024-02-15T12:25:53;99599.78;;;10.49;87.43
10618;BME280;5356;43.526;26.534;2024-02-15T12:28:18;99599.34;;;10.52;87.52
10618;BME280;5356;43.526;26.534;2024-02-15T12:30:44;99605.06;;;10.62;87.36
10618;BME280;5356;43.526;26.534;2024-02-15T12:33:10;99599.16;;;10.53;87.11
10618;BME280;5356;43.526;26.534;2024-02-15T12:35:36;99604.66;;;10.59;88.08
10618;BME280;5356;43.526;26.534;2024-02-15T12:38:03;99601.97;;;10.59;87.79
10618;BME280;5356;43.526;26.534;2024-02-15T12:40:35;99610.03;;;10.45;85.62
10618;BME280;5356;43.526;26.534;2024-02-15T12:43:02;99595.91;;;10.45;86.48
10618;BME280;5356;43.526;26.534;2024-02-15T12:45:31;99605.97;;;10.36;86.62
10618;BME280;5356;43.526;26.534;2024-02-15T12:47:58;99608.63;;;10.36;86.96
10618;BME280;5356;43.526;26.534;2024-02-15T12:50:28;99601.63;;;10.35;86.62
10618;BME280;5356;43.526;26.534;2024-02-15T12:52:54;99601.41;;;10.43;87.01
10618;BME280;5356;43.526;26.534;2024-02-15T12:55:22;99603.66;;;10.46;86.31
10618;BME280;5356;43.526;26.534;2024-02-15T12:57:53;99597.09;;;10.49;84.78
10618;BME280;5356;43.526;26.534;2024-02-15T13:02:47;99599.97;;;10.54;84.22
10618;BME280;5356;43.526;26.534;2024-02-15T13:05:15;99600.19;;;10.46;84.00
10618;BME280;5356;43.526;26.534;2024-02-15T13:07:41;99595.28;;;10.43;82.13
10618;BME280;5356;43.526;26.534;2024-02-15T13:10:07;99593.41;;;10.50;84.23
10618;BME280;5356;43.526;26.534;2024-02-15T13:12:37;99587.25;;;10.49;84.63
10618;BME280;5356;43.526;26.534;2024-02-15T13:15:06;99590.16;;;10.48;82.03